createdAt,value
2023-04-30T00:01:10.512Z,9.57
2023-04-30T00:03:37.372Z,11.40
2023-04-30T00:06:04.052Z,11.50
2023-04-30T00:08:30.641Z,9.63
2023-04-30T00:10:57.364Z,12.68
2023-04-30T00:13:23.961Z,9.75
2023-04-30T00:15:51.360Z,10.07
2023-04-30T00:18:18.056Z,9.70
2023-04-30T00:20:44.634Z,12.65
2023-04-30T00:23:11.190Z,12.57
2023-04-30T00:25:37.726Z,11.43
2023-04-30T00:28:04.464Z,10.85
2023-04-30T00:30:55.914Z,11.38
2023-04-30T00:33:35.200Z,10.48
2023-04-30T00:36:01.846Z,10.98
2023-04-30T00:38:28.414Z,12.23
2023-04-30T00:40:55.049Z,11.20
2023-04-30T00:43:21.586Z,10.10
2023-04-30T00:45:48.152Z,10.88
2023-04-30T00:51:04.907Z,11.12
2023-04-30T00:53:32.362Z,8.63
2023-04-30T00:55:59.648Z,9.65
2023-04-30T00:58:26.335Z,11.45
2023-04-30T01:00:53.409Z,10.82
2023-04-30T01:03:20.493Z,9.45
2023-04-30T01:06:11.676Z,10.05
2023-04-30T01:08:53.836Z,10.38
2023-04-30T01:11:33.204Z,10.85
2023-04-30T01:14:10.545Z,9.32
2023-04-30T01:16:43.952Z,10.70
2023-04-30T01:19:36.785Z,9.85
2023-04-30T01:22:04.915Z,10.15
2023-04-30T01:25:08.447Z,9.45
2023-04-30T01:27:58.133Z,9.50
2023-04-30T01:30:26.009Z,9.30
2023-04-30T01:32:52.577Z,10.38
2023-04-30T01:35:19.179Z,10.30
2023-04-30T01:38:00.693Z,10.38
2023-04-30T01:40:46.628Z,8.80
2023-04-30T01:43:18.800Z,9.63
2023-04-30T01:46:07.334Z,9.77
2023-04-30T01:49:22.814Z,10.90
2023-04-30T01:51:57.425Z,9.35
2023-04-30T01:54:29.227Z,8.18
2023-04-30T01:57:05.092Z,8.70
2023-04-30T01:59:34.707Z,10.38
2023-04-30T02:02:02.160Z,9.90
2023-04-30T02:04:34.064Z,8.38
2023-04-30T02:07:01.183Z,10.25
2023-04-30T02:09:27.792Z,9.55
2023-04-30T02:11:54.319Z,11.00
2023-04-30T02:17:51.289Z,10.80
2023-04-30T02:20:22.702Z,12.02
2023-04-30T02:22:49.309Z,8.40
2023-04-30T02:25:16.051Z,9.48
2023-04-30T02:27:42.602Z,9.93
2023-04-30T02:30:09.374Z,9.70
2023-04-30T02:32:36.135Z,11.68
2023-04-30T02:35:02.743Z,9.05
2023-04-30T02:37:29.326Z,10.45
2023-04-30T02:39:56.230Z,9.55
2023-04-30T02:42:23.056Z,10.88
2023-04-30T02:44:49.653Z,11.43
2023-04-30T02:47:16.269Z,10.30
2023-04-30T02:50:42.796Z,10.43
2023-04-30T02:53:31.338Z,10.98
2023-04-30T02:55:59.194Z,8.82
2023-04-30T02:58:26.651Z,10.27
2023-04-30T03:00:53.283Z,11.45
2023-04-30T03:03:20.042Z,14.00
2023-04-30T03:05:46.714Z,11.02
2023-04-30T03:10:48.504Z,10.10
2023-04-30T03:13:15.070Z,10.50
2023-04-30T03:15:41.602Z,11.38
2023-04-30T03:18:27.182Z,9.20
2023-04-30T03:21:20.730Z,9.75
2023-04-30T03:24:09.207Z,11.15
2023-04-30T03:26:35.975Z,11.70
2023-04-30T03:29:02.638Z,9.82
2023-04-30T03:31:29.259Z,11.27
2023-04-30T03:33:56.113Z,11.70
2023-04-30T03:36:22.787Z,12.63
2023-04-30T03:38:49.388Z,15.52
2023-04-30T03:41:16.024Z,13.05
2023-04-30T03:43:42.614Z,13.00
2023-04-30T03:46:09.243Z,12.60
2023-04-30T03:48:35.969Z,14.87
2023-04-30T03:51:02.661Z,14.38
2023-04-30T03:54:16.068Z,13.77
2023-04-30T03:56:46.372Z,15.57
2023-04-30T03:59:18.213Z,18.83
2023-04-30T04:01:44.884Z,17.83
2023-04-30T04:04:11.795Z,16.83
2023-04-30T04:06:38.382Z,17.60
2023-04-30T04:09:05.109Z,16.87
2023-04-30T04:11:31.896Z,18.05
2023-04-30T04:16:47.279Z,17.55
2023-04-30T04:19:14.294Z,17.25
2023-04-30T04:21:40.896Z,17.90
2023-04-30T04:24:08.786Z,18.75
2023-04-30T04:26:36.510Z,19.60
2023-04-30T04:29:34.622Z,19.98
2023-04-30T04:32:19.623Z,19.65
2023-04-30T04:34:46.207Z,20.70
2023-04-30T04:37:12.788Z,20.50
2023-04-30T04:39:39.335Z,21.58
2023-04-30T04:42:05.878Z,21.70
2023-04-30T04:44:32.459Z,21.35
2023-04-30T04:49:34.276Z,21.08
2023-04-30T04:52:02.016Z,21.25
2023-04-30T04:54:34.741Z,21.95
2023-04-30T04:57:01.459Z,21.10
2023-04-30T04:59:28.014Z,18.67
2023-04-30T05:02:06.562Z,19.42
2023-04-30T05:04:58.160Z,19.15
2023-04-30T05:07:52.442Z,18.62
2023-04-30T05:10:19.083Z,20.02
2023-04-30T05:12:45.750Z,19.95
2023-04-30T05:15:12.338Z,18.50
2023-04-30T05:17:38.954Z,19.15
2023-04-30T05:20:07.444Z,18.80
2023-04-30T05:22:49.158Z,17.60
2023-04-30T05:25:15.890Z,17.23
2023-04-30T05:27:42.488Z,19.25
2023-04-30T05:30:09.948Z,18.70
2023-04-30T05:33:01.504Z,17.15
2023-04-30T05:36:02.318Z,16.27
2023-04-30T05:38:29.004Z,16.73
2023-04-30T05:40:55.597Z,16.77
2023-04-30T05:43:22.159Z,17.50
2023-04-30T05:45:49.004Z,18.23
2023-04-30T05:48:15.659Z,16.70
2023-04-30T05:50:42.500Z,16.50
2023-04-30T05:53:09.103Z,16.02
2023-04-30T05:55:36.361Z,15.30
2023-04-30T05:58:03.002Z,14.02
2023-04-30T06:00:29.565Z,15.00
2023-04-30T06:02:56.317Z,14.60
2023-04-30T06:05:23.077Z,17.77
2023-04-30T06:07:49.679Z,15.80
2023-04-30T06:10:16.280Z,15.25
2023-04-30T06:12:42.846Z,14.13
2023-04-30T06:15:09.758Z,14.90
2023-04-30T06:17:36.439Z,16.08
2023-04-30T06:20:06.998Z,15.93
2023-04-30T06:26:15.365Z,13.82
2023-04-30T06:28:41.940Z,13.07
2023-04-30T06:31:08.758Z,13.68
2023-04-30T06:33:35.363Z,12.68
2023-04-30T06:36:14.002Z,14.25
2023-04-30T06:38:41.671Z,12.23
2023-04-30T06:41:08.626Z,12.13
2023-04-30T06:43:35.371Z,12.95
2023-04-30T06:46:02.082Z,13.48
2023-04-30T06:48:28.663Z,11.45
2023-04-30T06:50:55.381Z,10.82
2023-04-30T06:53:21.986Z,11.32
2023-04-30T06:55:48.867Z,11.05
2023-04-30T06:58:15.456Z,10.38
2023-04-30T07:00:42.945Z,10.75
2023-04-30T07:03:09.763Z,10.05
2023-04-30T07:05:36.558Z,10.02
2023-04-30T07:08:04.044Z,12.00
2023-04-30T07:10:31.721Z,12.50
2023-04-30T07:12:59.268Z,11.70
2023-04-30T07:15:26.089Z,8.98
2023-04-30T07:17:53.033Z,12.23
2023-04-30T07:20:19.692Z,7.95
2023-04-30T07:22:46.541Z,7.97
2023-04-30T07:25:13.970Z,8.82
2023-04-30T07:27:41.012Z,7.20
2023-04-30T07:30:11.688Z,8.27
2023-04-30T07:32:41.043Z,6.82
2023-04-30T07:35:08.009Z,9.30
2023-04-30T07:37:36.048Z,8.25
2023-04-30T07:40:04.171Z,5.65
2023-04-30T07:42:30.736Z,6.53
2023-04-30T07:45:04.848Z,6.85
2023-04-30T07:47:31.429Z,6.70
2023-04-30T07:49:58.492Z,5.53
2023-04-30T07:52:25.085Z,7.05
2023-04-30T07:54:51.898Z,4.87
2023-04-30T07:57:19.225Z,6.55
2023-04-30T07:59:45.866Z,5.50
2023-04-30T08:02:12.573Z,5.40
2023-04-30T08:04:39.195Z,3.85
2023-04-30T08:07:05.896Z,3.95
2023-04-30T08:09:32.761Z,4.03
2023-04-30T08:11:59.390Z,4.47
2023-04-30T08:14:26.006Z,5.97
2023-04-30T08:16:52.956Z,3.85
2023-04-30T08:19:19.569Z,3.67
2023-04-30T08:24:21.438Z,3.83
2023-04-30T08:26:48.212Z,3.28
2023-04-30T08:29:14.754Z,5.53
2023-04-30T08:31:41.496Z,4.25
2023-04-30T08:34:08.139Z,2.80
2023-04-30T08:37:02.569Z,3.80
2023-04-30T08:43:08.785Z,3.17
2023-04-30T08:45:41.348Z,2.75
2023-04-30T08:48:15.211Z,2.33
2023-04-30T08:50:41.912Z,3.20
2023-04-30T08:53:11.087Z,3.22
2023-04-30T08:55:39.761Z,1.73
2023-04-30T08:58:08.364Z,2.12
2023-04-30T09:00:38.087Z,3.67
2023-04-30T09:03:05.786Z,2.70
2023-04-30T09:05:32.469Z,5.03
2023-04-30T09:08:03.676Z,3.80
2023-04-30T09:10:34.751Z,3.28
2023-04-30T09:13:09.295Z,1.60
2023-04-30T09:15:38.737Z,2.50
2023-04-30T09:18:19.998Z,2.78
2023-04-30T09:21:03.329Z,3.60
2023-04-30T09:23:30.779Z,2.83
2023-04-30T09:25:57.594Z,5.80
2023-04-30T09:28:26.522Z,2.70
2023-04-30T09:30:53.520Z,3.65
2023-04-30T09:33:20.511Z,3.22
2023-04-30T09:35:47.224Z,4.95
2023-04-30T09:38:28.172Z,3.95
2023-04-30T09:40:55.093Z,2.60
2023-04-30T09:43:21.737Z,3.15
2023-04-30T09:45:52.424Z,2.80
2023-04-30T09:48:24.564Z,4.03
2023-04-30T09:50:54.979Z,2.37
2023-04-30T09:53:24.287Z,2.25
2023-04-30T09:55:51.660Z,2.47
2023-04-30T09:58:19.703Z,2.35
2023-04-30T10:00:49.449Z,2.60
2023-04-30T10:03:16.900Z,3.75
2023-04-30T10:05:48.672Z,2.65
2023-04-30T10:08:21.451Z,2.97
2023-04-30T10:13:21.882Z,1.85
2023-04-30T10:15:54.428Z,1.48
2023-04-30T10:18:31.298Z,2.40
2023-04-30T10:21:02.610Z,2.58
2023-04-30T10:23:30.450Z,2.45
2023-04-30T10:28:39.094Z,3.25
2023-04-30T10:31:07.246Z,2.58
2023-04-30T10:33:52.262Z,2.17
2023-04-30T10:36:33.894Z,4.12
2023-04-30T10:39:01.619Z,3.03
2023-04-30T10:42:18.236Z,2.25
2023-04-30T10:45:12.811Z,2.28
2023-04-30T10:47:46.190Z,2.25
2023-04-30T10:50:13.516Z,2.60
2023-04-30T10:52:40.196Z,1.90
2023-04-30T10:55:08.826Z,1.73
2023-04-30T10:57:43.835Z,3.30
2023-04-30T11:00:10.546Z,2.45
2023-04-30T11:02:44.822Z,3.83
2023-04-30T11:05:14.432Z,2.05
2023-04-30T11:07:49.193Z,2.00
2023-04-30T11:10:16.570Z,3.58
2023-04-30T11:12:51.270Z,1.87
2023-04-30T11:15:20.222Z,2.22
2023-04-30T11:17:49.497Z,2.00
2023-04-30T11:20:22.969Z,2.50
2023-04-30T11:23:14.249Z,2.67
2023-04-30T11:25:46.571Z,2.22
2023-04-30T11:28:34.729Z,2.35
2023-04-30T11:31:02.154Z,3.12
2023-04-30T11:33:44.249Z,1.77
2023-04-30T11:36:10.805Z,2.13
2023-04-30T11:38:40.780Z,2.00
2023-04-30T11:41:23.368Z,3.35
2023-04-30T11:43:49.953Z,2.58
2023-04-30T11:46:35.084Z,3.17
2023-04-30T11:49:01.841Z,2.65
2023-04-30T11:51:28.656Z,2.37
2023-04-30T11:53:55.395Z,2.12
2023-04-30T11:56:24.130Z,2.92
2023-04-30T11:58:52.765Z,2.10
2023-04-30T12:01:21.026Z,1.52
2023-04-30T12:03:49.947Z,3.12
2023-04-30T12:06:28.017Z,1.33
2023-04-30T12:08:56.815Z,1.95
2023-04-30T12:11:27.642Z,2.10
2023-04-30T12:13:55.872Z,1.40
2023-04-30T12:16:25.268Z,1.83
2023-04-30T12:18:52.845Z,2.30
2023-04-30T12:21:21.703Z,1.83
2023-04-30T12:23:48.378Z,1.30
2023-04-30T12:26:15.098Z,2.85
2023-04-30T12:28:41.718Z,1.92
2023-04-30T12:31:08.707Z,4.28
2023-04-30T12:33:37.254Z,1.48
2023-04-30T12:36:04.160Z,1.80
2023-04-30T12:38:30.753Z,1.75
2023-04-30T12:40:57.606Z,2.22
2023-04-30T12:43:24.173Z,3.37
2023-04-30T12:48:44.190Z,1.92
2023-04-30T12:51:11.478Z,2.17
2023-04-30T12:53:47.340Z,3.45
2023-04-30T12:56:16.483Z,1.67
2023-04-30T12:58:49.837Z,2.22
2023-04-30T13:02:14.281Z,1.77
2023-04-30T13:05:16.195Z,3.58
2023-04-30T13:07:42.836Z,1.42
2023-04-30T13:10:09.784Z,1.67
2023-04-30T13:12:36.423Z,1.58
2023-04-30T13:15:03.985Z,2.00
2023-04-30T13:17:30.582Z,2.35
2023-04-30T13:19:57.564Z,2.53
2023-04-30T13:22:29.467Z,2.17
2023-04-30T13:24:56.021Z,2.27
2023-04-30T13:27:22.586Z,1.80
2023-04-30T13:29:49.209Z,1.55
2023-04-30T13:32:17.088Z,1.42
2023-04-30T13:34:43.775Z,2.87
2023-04-30T13:37:10.744Z,1.25
2023-04-30T13:39:37.267Z,2.03
2023-04-30T13:42:04.544Z,2.37
2023-04-30T13:44:33.858Z,1.80
2023-04-30T13:47:00.632Z,2.15
2023-04-30T13:49:27.327Z,1.02
2023-04-30T13:52:40.697Z,2.42
2023-04-30T13:55:52.740Z,1.85
2023-04-30T13:58:19.473Z,2.95
2023-04-30T14:00:46.299Z,1.58
2023-04-30T14:03:14.169Z,1.10
2023-04-30T14:05:40.910Z,1.50
2023-04-30T14:08:07.463Z,2.30
2023-04-30T14:10:34.029Z,1.40
2023-04-30T14:13:00.735Z,1.50
2023-04-30T14:15:30.596Z,1.08
2023-04-30T14:17:57.263Z,1.25
2023-04-30T14:20:24.916Z,1.52
2023-04-30T14:22:51.542Z,3.17
2023-04-30T14:25:18.243Z,0.93
2023-04-30T14:27:44.816Z,14.60
2023-04-30T14:30:11.986Z,1.20
2023-04-30T14:32:38.628Z,1.05
2023-04-30T14:35:05.981Z,1.55
2023-04-30T14:37:32.762Z,1.30
2023-04-30T14:40:00.420Z,1.17
2023-04-30T14:42:26.998Z,1.70
2023-04-30T14:44:53.541Z,1.30
2023-04-30T14:47:21.627Z,1.70
2023-04-30T14:49:50.263Z,1.62
2023-04-30T14:52:16.840Z,1.87
2023-04-30T14:54:43.495Z,1.23
2023-04-30T14:57:10.151Z,1.33
2023-04-30T14:59:38.846Z,1.20
2023-04-30T15:02:05.870Z,1.85
2023-04-30T15:04:32.484Z,1.17
2023-04-30T15:06:59.033Z,1.48
2023-04-30T15:09:25.609Z,2.17
2023-04-30T15:11:52.242Z,1.30
2023-04-30T15:14:18.876Z,1.58
2023-04-30T15:16:45.690Z,1.25
2023-04-30T15:19:12.360Z,1.62
2023-04-30T15:21:39.115Z,1.30
2023-04-30T15:24:06.370Z,2.08
2023-04-30T15:26:33.070Z,3.53
2023-04-30T15:28:59.918Z,2.72
2023-04-30T15:31:26.922Z,3.40
2023-04-30T15:33:53.596Z,10.88
2023-04-30T15:36:23.287Z,2.75
2023-04-30T15:38:49.868Z,5.25
2023-04-30T15:41:16.423Z,3.25
2023-04-30T15:43:42.986Z,2.50
2023-04-30T15:46:09.686Z,4.60
2023-04-30T15:48:36.296Z,2.67
2023-04-30T15:51:03.220Z,2.85
2023-04-30T15:53:29.829Z,2.75
2023-04-30T15:55:57.374Z,2.47
2023-04-30T15:58:23.949Z,1.95
2023-04-30T16:00:50.498Z,2.70
2023-04-30T16:03:17.223Z,3.17
2023-04-30T16:05:43.976Z,4.35
2023-04-30T16:08:10.811Z,3.05
2023-04-30T16:10:38.714Z,2.85
2023-04-30T16:13:05.471Z,3.12
2023-04-30T16:15:32.448Z,7.90
2023-04-30T16:17:59.164Z,2.92
2023-04-30T16:20:27.354Z,2.65
2023-04-30T16:22:54.871Z,2.37
2023-04-30T16:25:22.226Z,2.97
2023-04-30T16:27:49.746Z,5.20
2023-04-30T16:30:16.474Z,4.72
2023-04-30T16:32:43.129Z,4.25
2023-04-30T16:35:10.213Z,4.12
2023-04-30T16:37:36.767Z,3.80
2023-04-30T16:40:03.602Z,3.37
2023-04-30T16:42:30.888Z,5.65
2023-04-30T16:44:57.479Z,4.72
2023-04-30T16:47:24.117Z,4.05
2023-04-30T16:49:50.748Z,4.07
2023-04-30T16:52:17.389Z,3.45
2023-04-30T16:54:44.198Z,4.03
2023-04-30T16:57:11.062Z,2.80
2023-04-30T16:59:37.630Z,2.87
2023-04-30T17:02:04.830Z,3.75
2023-04-30T17:04:31.684Z,3.95
2023-04-30T17:06:59.197Z,3.65
2023-04-30T17:09:32.302Z,3.00
2023-04-30T17:11:58.874Z,4.03
2023-04-30T17:14:25.451Z,3.40
2023-04-30T17:16:52.457Z,3.55
2023-04-30T17:19:19.096Z,4.20
2023-04-30T17:21:45.860Z,2.72
2023-04-30T17:24:12.591Z,3.22
2023-04-30T17:26:39.231Z,3.42
2023-04-30T17:29:06.283Z,5.00
2023-04-30T17:31:33.244Z,2.47
2023-04-30T17:34:03.206Z,4.12
2023-04-30T17:36:30.360Z,3.30
2023-04-30T17:38:59.616Z,3.17
2023-04-30T17:41:26.413Z,3.17
2023-04-30T17:43:52.976Z,3.53
2023-04-30T17:46:19.635Z,2.80
2023-04-30T17:48:47.083Z,2.90
2023-04-30T17:51:13.714Z,3.00
2023-04-30T17:53:40.761Z,3.62
2023-04-30T17:56:08.741Z,4.30
2023-04-30T17:58:36.589Z,4.25
2023-04-30T18:01:05.588Z,4.70
2023-04-30T18:03:32.602Z,3.53
2023-04-30T18:05:59.344Z,6.45
2023-04-30T18:08:26.331Z,7.25
2023-04-30T18:10:53.178Z,6.50
2023-04-30T18:13:19.733Z,6.50
2023-04-30T18:18:21.657Z,8.52
2023-04-30T18:20:49.681Z,7.57
2023-04-30T18:23:16.611Z,5.72
2023-04-30T18:25:43.678Z,7.07
2023-04-30T18:33:41.666Z,5.32
2023-04-30T18:36:09.073Z,4.70
2023-04-30T18:38:35.625Z,5.15
2023-04-30T18:41:02.407Z,5.55
2023-04-30T18:43:28.985Z,5.95
2023-04-30T18:45:55.578Z,5.78
2023-04-30T18:48:23.046Z,6.90
2023-04-30T18:50:50.157Z,5.85
2023-04-30T18:53:17.386Z,7.85
2023-04-30T18:55:46.996Z,7.95
2023-04-30T18:58:13.800Z,7.25
2023-04-30T19:00:43.521Z,6.78
2023-04-30T19:03:10.398Z,7.10
2023-04-30T19:05:37.548Z,7.20
2023-04-30T19:08:04.331Z,6.47
2023-04-30T19:10:30.934Z,6.35
2023-04-30T19:12:57.482Z,6.12
2023-04-30T19:15:25.621Z,9.25
2023-04-30T19:17:52.271Z,6.43
2023-04-30T19:20:19.044Z,7.18
2023-04-30T19:22:45.653Z,8.55
2023-04-30T19:25:12.439Z,9.48
2023-04-30T19:27:39.176Z,9.35
2023-04-30T19:30:06.855Z,10.27
2023-04-30T19:32:33.473Z,8.98
2023-04-30T19:35:00.147Z,7.68
2023-04-30T19:37:26.856Z,8.73
2023-04-30T19:39:53.595Z,7.72
2023-04-30T19:42:20.423Z,8.70
2023-04-30T19:44:47.106Z,7.53
2023-04-30T19:47:13.788Z,7.90
2023-04-30T19:49:40.417Z,7.85
2023-04-30T19:52:08.031Z,8.88
2023-04-30T19:54:34.694Z,7.93
2023-04-30T19:57:02.129Z,8.90
2023-04-30T19:59:28.733Z,10.80
2023-04-30T20:01:55.378Z,11.73
2023-04-30T20:04:22.441Z,11.90
2023-04-30T20:06:56.001Z,10.43
2023-04-30T20:09:23.261Z,9.68
2023-04-30T20:11:51.607Z,12.57
2023-04-30T20:14:18.909Z,9.48
2023-04-30T20:16:46.470Z,12.50
2023-04-30T20:19:14.109Z,12.85
2023-04-30T20:21:40.698Z,12.73
2023-04-30T20:24:07.446Z,14.27
2023-04-30T20:26:34.525Z,10.20
2023-04-30T20:29:01.148Z,11.23
2023-04-30T20:31:31.269Z,11.60
2023-04-30T20:33:57.948Z,10.68
2023-04-30T20:36:24.696Z,12.60
2023-04-30T20:38:54.280Z,12.20
2023-04-30T20:41:39.487Z,10.88
2023-04-30T20:44:06.057Z,14.02
2023-04-30T20:46:33.340Z,15.25
2023-04-30T20:49:04.284Z,12.05
2023-04-30T20:51:31.258Z,11.98
2023-04-30T20:53:57.832Z,11.35
2023-04-30T20:56:24.474Z,10.40
2023-04-30T20:58:51.058Z,12.60
2023-04-30T21:01:17.646Z,14.82
2023-04-30T21:03:44.280Z,13.60
2023-04-30T21:06:11.383Z,12.57
2023-04-30T21:08:38.037Z,11.90
2023-04-30T21:11:04.614Z,10.95
2023-04-30T21:13:31.173Z,11.35
2023-04-30T21:15:57.999Z,14.32
2023-04-30T21:18:27.078Z,11.95
2023-04-30T21:20:53.821Z,12.23
2023-04-30T21:23:20.396Z,12.55
2023-04-30T21:28:35.706Z,11.55
2023-04-30T21:31:09.172Z,10.68
2023-04-30T21:33:37.388Z,11.18
2023-04-30T21:36:05.036Z,10.80
2023-04-30T21:38:31.780Z,11.85
2023-04-30T21:41:58.236Z,10.73
2023-04-30T21:44:50.481Z,10.75
2023-04-30T21:47:17.612Z,9.82
2023-04-30T21:49:44.218Z,10.15
2023-04-30T21:52:11.678Z,10.60
2023-04-30T21:54:38.308Z,8.93
2023-04-30T21:57:04.981Z,9.70
2023-04-30T22:02:20.019Z,10.02
2023-04-30T22:04:49.766Z,9.43
2023-04-30T22:07:16.376Z,8.13
2023-04-30T22:09:44.952Z,10.45
2023-04-30T22:12:12.161Z,11.45
2023-04-30T22:15:10.023Z,9.73
2023-04-30T22:18:15.998Z,10.15
2023-04-30T22:20:49.749Z,8.65
2023-04-30T22:23:17.349Z,9.50
2023-04-30T22:25:43.987Z,7.07
2023-04-30T22:28:10.642Z,8.60
2023-04-30T22:30:38.344Z,9.63
2023-04-30T22:33:05.470Z,8.30
2023-04-30T22:35:35.670Z,6.95
2023-04-30T22:38:03.504Z,6.60
2023-04-30T22:40:33.046Z,6.55
2023-04-30T22:43:00.693Z,6.45
2023-04-30T22:45:29.976Z,8.10
2023-04-30T22:47:59.406Z,7.05
2023-04-30T22:50:27.437Z,6.50
2023-04-30T22:52:56.251Z,6.00
2023-04-30T22:55:23.261Z,8.15
2023-04-30T22:57:49.809Z,7.37
2023-04-30T23:00:18.207Z,6.55
2023-04-30T23:02:44.789Z,6.43
2023-04-30T23:05:51.582Z,7.47
2023-04-30T23:08:46.153Z,5.85
2023-04-30T23:11:12.813Z,7.47
2023-04-30T23:13:39.415Z,6.55
2023-04-30T23:16:09.096Z,6.37
2023-04-30T23:18:38.980Z,5.82
2023-04-30T23:21:06.143Z,6.35
2023-04-30T23:23:51.174Z,7.55
2023-04-30T23:26:17.815Z,7.10
2023-04-30T23:28:44.398Z,9.43
2023-04-30T23:31:10.961Z,7.57
2023-04-30T23:33:37.707Z,6.20
2023-04-30T23:36:28.390Z,5.97
2023-04-30T23:39:13.508Z,7.22
2023-04-30T23:41:40.112Z,5.97
2023-04-30T23:44:06.768Z,6.12
2023-04-30T23:46:33.372Z,6.60
2023-04-30T23:49:00.059Z,6.97
2023-04-30T23:51:26.644Z,5.90
2023-04-30T23:56:41.683Z,7.45
2023-04-30T23:59:08.288Z,7.93
